sensor_id;sensor_type;location;lat;lon;timestamp;temperature;humidity
42715;DHT22;28351;51.480;5.706;2024-01-30T00:01:19;6.90;99.90
42715;DHT22;28351;51.480;5.706;2024-01-30T00:03:45;6.90;99.90
42715;DHT22;28351;51.480;5.706;2024-01-30T00:06:11;6.90;99.90
42715;DHT22;28351;51.480;5.706;2024-01-30T00:08:36;6.90;99.90
42715;DHT22;28351;51.480;5.706;2024-01-30T00:11:02;6.70;99.90
42715;DHT22;28351;51.480;5.706;2024-01-30T00:13:27;6.80;99.90
42715;DHT22;28351;51.480;5.706;2024-01-30T00:15:53;6.80;99.90
42715;DHT22;28351;51.480;5.706;2024-01-30T00:18:19;6.70;99.90
42715;DHT22;28351;51.480;5.706;2024-01-30T00:20:44;6.80;99.90
42715;DHT22;28351;51.480;5.706;2024-01-30T00:23:10;6.80;99.90
42715;DHT22;28351;51.480;5.706;2024-01-30T00:25:35;6.80;99.90
42715;DHT22;28351;51.480;5.706;2024-01-30T00:28:01;6.70;99.90
42715;DHT22;28351;51.480;5.706;2024-01-30T00:30:26;6.70;99.90
42715;DHT22;28351;51.480;5.706;2024-01-30T00:32:53;6.80;99.90
42715;DHT22;28351;51.480;5.706;2024-01-30T00:35:18;6.60;99.90
42715;DHT22;28351;51.480;5.706;2024-01-30T00:37:47;6.60;99.90
42715;DHT22;28351;51.480;5.706;2024-01-30T00:40:12;6.40;99.90
42715;DHT22;28351;51.480;5.706;2024-01-30T00:42:43;6.40;99.90
42715;DHT22;28351;51.480;5.706;2024-01-30T00:45:15;6.40;99.90
42715;DHT22;28351;51.480;5.706;2024-01-30T00:47:41;6.40;99.90
42715;DHT22;28351;51.480;5.706;2024-01-30T00:50:07;6.40;99.90
42715;DHT22;28351;51.480;5.706;2024-01-30T00:52:32;6.40;99.90
42715;DHT22;28351;51.480;5.706;2024-01-30T00:54:58;6.40;99.90
42715;DHT22;28351;51.480;5.706;2024-01-30T00:57:26;6.30;99.90
42715;DHT22;28351;51.480;5.706;2024-01-30T00:59:52;6.20;99.90
42715;DHT22;28351;51.480;5.706;2024-01-30T01:02:17;6.20;99.90
42715;DHT22;28351;51.480;5.706;2024-01-30T01:04:43;6.10;99.90
42715;DHT22;28351;51.480;5.706;2024-01-30T01:07:09;6.20;99.90
42715;DHT22;28351;51.480;5.706;2024-01-30T01:09:35;6.20;99.90
42715;DHT22;28351;51.480;5.706;2024-01-30T01:12:01;6.20;99.90
42715;DHT22;28351;51.480;5.706;2024-01-30T01:14:27;6.20;99.90
42715;DHT22;28351;51.480;5.706;2024-01-30T01:16:52;6.30;99.90
42715;DHT22;28351;51.480;5.706;2024-01-30T01:19:19;6.30;99.90
42715;DHT22;28351;51.480;5.706;2024-01-30T01:21:44;6.30;99.90
42715;DHT22;28351;51.480;5.706;2024-01-30T01:24:10;6.30;99.90
42715;DHT22;28351;51.480;5.706;2024-01-30T01:26:35;6.30;99.90
42715;DHT22;28351;51.480;5.706;2024-01-30T01:29:01;6.30;99.90
42715;DHT22;28351;51.480;5.706;2024-01-30T01:31:26;6.30;99.90
42715;DHT22;28351;51.480;5.706;2024-01-30T01:33:55;6.30;99.90
42715;DHT22;28351;51.480;5.706;2024-01-30T01:36:20;6.40;99.90
42715;DHT22;28351;51.480;5.706;2024-01-30T01:38:47;6.40;99.90
42715;DHT22;28351;51.480;5.706;2024-01-30T01:41:12;6.40;99.90
42715;DHT22;28351;51.480;5.706;2024-01-30T01:43:40;6.40;99.90
42715;DHT22;28351;51.480;5.706;2024-01-30T01:46:06;6.40;99.90
42715;DHT22;28351;51.480;5.706;2024-01-30T01:48:35;6.40;99.90
42715;DHT22;28351;51.480;5.706;2024-01-30T01:51:00;6.40;99.90
42715;DHT22;28351;51.480;5.706;2024-01-30T01:53:26;6.40;99.90
42715;DHT22;28351;51.480;5.706;2024-01-30T01:55:57;6.40;99.90
42715;DHT22;28351;51.480;5.706;2024-01-30T01:58:23;6.50;99.90
42715;DHT22;28351;51.480;5.706;2024-01-30T02:00:54;6.50;99.90
42715;DHT22;28351;51.480;5.706;2024-01-30T02:03:19;6.50;99.90
42715;DHT22;28351;51.480;5.706;2024-01-30T02:06:05;6.50;99.90
42715;DHT22;28351;51.480;5.706;2024-01-30T02:08:30;6.50;99.90
42715;DHT22;28351;51.480;5.706;2024-01-30T02:10:56;6.50;99.90
42715;DHT22;28351;51.480;5.706;2024-01-30T02:13:21;6.60;99.90
42715;DHT22;28351;51.480;5.706;2024-01-30T02:15:50;6.60;99.90
42715;DHT22;28351;51.480;5.706;2024-01-30T02:18:16;6.60;99.90
42715;DHT22;28351;51.480;5.706;2024-01-30T02:20:41;6.50;99.90
42715;DHT22;28351;51.480;5.706;2024-01-30T02:23:07;6.40;99.90
42715;DHT22;28351;51.480;5.706;2024-01-30T02:25:38;6.40;99.90
42715;DHT22;28351;51.480;5.706;2024-01-30T02:28:04;6.40;99.90
42715;DHT22;28351;51.480;5.706;2024-01-30T02:30:29;6.30;99.90
42715;DHT22;28351;51.480;5.706;2024-01-30T02:32:55;6.30;99.90
42715;DHT22;28351;51.480;5.706;2024-01-30T02:35:20;6.20;99.90
42715;DHT22;28351;51.480;5.706;2024-01-30T02:37:46;6.20;99.90
42715;DHT22;28351;51.480;5.706;2024-01-30T02:40:11;6.20;99.90
42715;DHT22;28351;51.480;5.706;2024-01-30T02:42:37;6.10;99.90
42715;DHT22;28351;51.480;5.706;2024-01-30T02:45:02;6.00;99.90
42715;DHT22;28351;51.480;5.706;2024-01-30T02:47:28;6.00;99.90
42715;DHT22;28351;51.480;5.706;2024-01-30T02:49:54;6.00;99.90
42715;DHT22;28351;51.480;5.706;2024-01-30T02:52:19;6.10;99.90
42715;DHT22;28351;51.480;5.706;2024-01-30T02:54:45;6.10;99.90
42715;DHT22;28351;51.480;5.706;2024-01-30T02:57:10;6.20;99.90
42715;DHT22;28351;51.480;5.706;2024-01-30T02:59:36;6.20;99.90
42715;DHT22;28351;51.480;5.706;2024-01-30T03:02:01;6.20;99.90
42715;DHT22;28351;51.480;5.706;2024-01-30T03:04:27;6.20;99.90
42715;DHT22;28351;51.480;5.706;2024-01-30T03:06:55;6.20;99.90
42715;DHT22;28351;51.480;5.706;2024-01-30T03:09:20;6.20;99.90
42715;DHT22;28351;51.480;5.706;2024-01-30T03:11:46;6.20;99.90
42715;DHT22;28351;51.480;5.706;2024-01-30T03:14:20;6.30;99.90
42715;DHT22;28351;51.480;5.706;2024-01-30T03:16:51;6.30;99.90
42715;DHT22;28351;51.480;5.706;2024-01-30T03:19:16;6.40;99.90
42715;DHT22;28351;51.480;5.706;2024-01-30T03:21:42;6.40;99.90
42715;DHT22;28351;51.480;5.706;2024-01-30T03:24:07;6.40;99.90
42715;DHT22;28351;51.480;5.706;2024-01-30T03:26:34;6.40;99.90
42715;DHT22;28351;51.480;5.706;2024-01-30T03:28:59;6.50;99.90
42715;DHT22;28351;51.480;5.706;2024-01-30T03:31:25;6.40;99.90
42715;DHT22;28351;51.480;5.706;2024-01-30T03:33:53;6.40;99.90
42715;DHT22;28351;51.480;5.706;2024-01-30T03:36:19;6.50;99.90
42715;DHT22;28351;51.480;5.706;2024-01-30T03:38:45;6.50;99.90
42715;DHT22;28351;51.480;5.706;2024-01-30T03:41:10;6.50;99.90
42715;DHT22;28351;51.480;5.706;2024-01-30T03:43:36;6.50;99.90
42715;DHT22;28351;51.480;5.706;2024-01-30T03:46:02;6.40;99.90
42715;DHT22;28351;51.480;5.706;2024-01-30T03:48:30;6.40;99.90
42715;DHT22;28351;51.480;5.706;2024-01-30T03:50:56;6.50;99.90
42715;DHT22;28351;51.480;5.706;2024-01-30T03:53:21;6.50;99.90
42715;DHT22;28351;51.480;5.706;2024-01-30T03:55:48;6.60;99.90
42715;DHT22;28351;51.480;5.706;2024-01-30T03:58:15;6.60;99.90
42715;DHT22;28351;51.480;5.706;2024-01-30T04:00:40;6.60;99.90
42715;DHT22;28351;51.480;5.706;2024-01-30T04:03:06;6.70;99.90
42715;DHT22;28351;51.480;5.706;2024-01-30T04:05:31;6.80;99.90
42715;DHT22;28351;51.480;5.706;2024-01-30T04:07:57;6.90;99.90
42715;DHT22;28351;51.480;5.706;2024-01-30T04:10:24;6.90;99.90
42715;DHT22;28351;51.480;5.706;2024-01-30T04:12:50;6.90;99.90
42715;DHT22;28351;51.480;5.706;2024-01-30T04:15:17;7.00;99.90
42715;DHT22;28351;51.480;5.706;2024-01-30T04:17:42;7.10;99.90
42715;DHT22;28351;51.480;5.706;2024-01-30T04:20:14;7.00;99.90
42715;DHT22;28351;51.480;5.706;2024-01-30T04:22:41;7.10;99.90
42715;DHT22;28351;51.480;5.706;2024-01-30T04:25:07;7.10;99.90
42715;DHT22;28351;51.480;5.706;2024-01-30T04:27:32;7.20;99.90
42715;DHT22;28351;51.480;5.706;2024-01-30T04:29:58;7.20;99.90
42715;DHT22;28351;51.480;5.706;2024-01-30T04:32:23;7.20;99.90
42715;DHT22;28351;51.480;5.706;2024-01-30T04:34:49;7.20;99.90
42715;DHT22;28351;51.480;5.706;2024-01-30T04:37:14;7.10;99.90
42715;DHT22;28351;51.480;5.706;2024-01-30T04:39:40;7.10;99.90
42715;DHT22;28351;51.480;5.706;2024-01-30T04:42:06;7.10;99.90
42715;DHT22;28351;51.480;5.706;2024-01-30T04:44:33;7.20;99.90
42715;DHT22;28351;51.480;5.706;2024-01-30T04:46:58;7.20;99.90
42715;DHT22;28351;51.480;5.706;2024-01-30T04:49:34;7.10;99.90
42715;DHT22;28351;51.480;5.706;2024-01-30T04:52:00;7.10;99.90
42715;DHT22;28351;51.480;5.706;2024-01-30T04:54:25;7.00;99.90
42715;DHT22;28351;51.480;5.706;2024-01-30T04:56:51;7.10;99.90
42715;DHT22;28351;51.480;5.706;2024-01-30T04:59:16;7.10;99.90
42715;DHT22;28351;51.480;5.706;2024-01-30T05:01:42;7.10;99.90
42715;DHT22;28351;51.480;5.706;2024-01-30T05:04:07;7.10;99.90
42715;DHT22;28351;51.480;5.706;2024-01-30T05:06:33;7.10;99.90
42715;DHT22;28351;51.480;5.706;2024-01-30T05:08:58;7.20;99.90
42715;DHT22;28351;51.480;5.706;2024-01-30T05:11:26;7.20;99.90
42715;DHT22;28351;51.480;5.706;2024-01-30T05:13:52;7.30;99.90
42715;DHT22;28351;51.480;5.706;2024-01-30T05:16:17;7.40;99.90
42715;DHT22;28351;51.480;5.706;2024-01-30T05:18:43;7.50;99.90
42715;DHT22;28351;51.480;5.706;2024-01-30T05:21:09;7.60;99.90
42715;DHT22;28351;51.480;5.706;2024-01-30T05:23:35;7.50;99.90
42715;DHT22;28351;51.480;5.706;2024-01-30T05:26:01;7.60;99.90
42715;DHT22;28351;51.480;5.706;2024-01-30T05:28:26;7.70;99.90
42715;DHT22;28351;51.480;5.706;2024-01-30T05:30:53;7.60;99.90
42715;DHT22;28351;51.480;5.706;2024-01-30T05:33:18;7.70;99.90
42715;DHT22;28351;51.480;5.706;2024-01-30T05:35:44;7.70;99.90
42715;DHT22;28351;51.480;5.706;2024-01-30T05:38:11;7.70;99.90
42715;DHT22;28351;51.480;5.706;2024-01-30T05:40:36;7.80;99.90
42715;DHT22;28351;51.480;5.706;2024-01-30T05:43:05;7.80;99.90
42715;DHT22;28351;51.480;5.706;2024-01-30T05:45:30;7.80;99.90
42715;DHT22;28351;51.480;5.706;2024-01-30T05:47:56;7.80;99.90
42715;DHT22;28351;51.480;5.706;2024-01-30T05:50:21;7.80;99.90
42715;DHT22;28351;51.480;5.706;2024-01-30T05:52:48;7.80;99.90
42715;DHT22;28351;51.480;5.706;2024-01-30T05:55:14;7.80;99.90
42715;DHT22;28351;51.480;5.706;2024-01-30T05:57:39;7.70;99.90
42715;DHT22;28351;51.480;5.706;2024-01-30T06:00:10;7.70;99.90
42715;DHT22;28351;51.480;5.706;2024-01-30T06:02:36;7.70;99.90
42715;DHT22;28351;51.480;5.706;2024-01-30T06:05:09;7.70;99.90
42715;DHT22;28351;51.480;5.706;2024-01-30T06:07:34;7.70;99.90
42715;DHT22;28351;51.480;5.706;2024-01-30T06:10:00;7.80;99.90
42715;DHT22;28351;51.480;5.706;2024-01-30T06:12:29;7.80;99.90
42715;DHT22;28351;51.480;5.706;2024-01-30T06:14:55;7.70;99.90
42715;DHT22;28351;51.480;5.706;2024-01-30T06:17:24;7.70;99.90
42715;DHT22;28351;51.480;5.706;2024-01-30T06:19:50;7.70;99.90
42715;DHT22;28351;51.480;5.706;2024-01-30T06:22:16;7.70;99.90
42715;DHT22;28351;51.480;5.706;2024-01-30T06:24:41;7.70;99.90
42715;DHT22;28351;51.480;5.706;2024-01-30T06:27:07;7.70;99.90
42715;DHT22;28351;51.480;5.706;2024-01-30T06:29:32;7.60;99.90
42715;DHT22;28351;51.480;5.706;2024-01-30T06:31:58;7.60;99.90
42715;DHT22;28351;51.480;5.706;2024-01-30T06:34:23;7.60;99.90
42715;DHT22;28351;51.480;5.706;2024-01-30T06:36:56;7.60;99.90
42715;DHT22;28351;51.480;5.706;2024-01-30T06:39:22;7.60;99.90
42715;DHT22;28351;51.480;5.706;2024-01-30T06:41:51;7.60;99.90
42715;DHT22;28351;51.480;5.706;2024-01-30T06:44:25;7.60;99.90
42715;DHT22;28351;51.480;5.706;2024-01-30T06:46:53;7.50;99.90
42715;DHT22;28351;51.480;5.706;2024-01-30T06:49:19;7.60;99.90
42715;DHT22;28351;51.480;5.706;2024-01-30T06:51:47;7.60;99.90
42715;DHT22;28351;51.480;5.706;2024-01-30T06:54:12;7.60;99.90
42715;DHT22;28351;51.480;5.706;2024-01-30T06:56:38;7.60;99.90
42715;DHT22;28351;51.480;5.706;2024-01-30T06:59:04;7.60;99.90
42715;DHT22;28351;51.480;5.706;2024-01-30T07:01:30;7.60;99.90
42715;DHT22;28351;51.480;5.706;2024-01-30T07:03:55;7.60;99.90
42715;DHT22;28351;51.480;5.706;2024-01-30T07:06:21;7.60;99.90
42715;DHT22;28351;51.480;5.706;2024-01-30T07:08:48;7.70;99.90
42715;DHT22;28351;51.480;5.706;2024-01-30T07:11:28;7.70;99.90
42715;DHT22;28351;51.480;5.706;2024-01-30T07:13:54;7.80;99.90
42715;DHT22;28351;51.480;5.706;2024-01-30T07:16:19;7.80;99.90
42715;DHT22;28351;51.480;5.706;2024-01-30T07:18:54;7.90;99.90
42715;DHT22;28351;51.480;5.706;2024-01-30T07:21:19;7.90;99.90
42715;DHT22;28351;51.480;5.706;2024-01-30T07:23:47;8.00;99.90
42715;DHT22;28351;51.480;5.706;2024-01-30T07:26:12;8.20;99.90
42715;DHT22;28351;51.480;5.706;2024-01-30T07:28:38;8.30;99.90
42715;DHT22;28351;51.480;5.706;2024-01-30T07:31:03;8.30;99.90
42715;DHT22;28351;51.480;5.706;2024-01-30T07:33:29;8.50;99.90
42715;DHT22;28351;51.480;5.706;2024-01-30T07:35:54;8.50;99.90
42715;DHT22;28351;51.480;5.706;2024-01-30T07:38:25;8.50;99.90
42715;DHT22;28351;51.480;5.706;2024-01-30T07:40:54;8.60;99.90
42715;DHT22;28351;51.480;5.706;2024-01-30T07:43:30;8.70;99.90
42715;DHT22;28351;51.480;5.706;2024-01-30T07:45:55;8.80;99.90
42715;DHT22;28351;51.480;5.706;2024-01-30T07:48:21;8.80;99.90
42715;DHT22;28351;51.480;5.706;2024-01-30T07:50:46;8.90;99.90
42715;DHT22;28351;51.480;5.706;2024-01-30T07:53:12;9.00;99.90
42715;DHT22;28351;51.480;5.706;2024-01-30T07:55:37;9.00;99.90
42715;DHT22;28351;51.480;5.706;2024-01-30T07:58:03;9.00;99.90
42715;DHT22;28351;51.480;5.706;2024-01-30T08:00:31;9.10;99.90
42715;DHT22;28351;51.480;5.706;2024-01-30T08:02:56;9.10;99.90
42715;DHT22;28351;51.480;5.706;2024-01-30T08:05:22;9.20;99.90
42715;DHT22;28351;51.480;5.706;2024-01-30T08:07:48;9.30;99.90
42715;DHT22;28351;51.480;5.706;2024-01-30T08:10:14;9.40;99.90
42715;DHT22;28351;51.480;5.706;2024-01-30T08:12:40;9.40;99.90
42715;DHT22;28351;51.480;5.706;2024-01-30T08:15:05;9.50;99.90
42715;DHT22;28351;51.480;5.706;2024-01-30T08:17:34;9.50;99.90
42715;DHT22;28351;51.480;5.706;2024-01-30T08:19:59;9.60;99.90
42715;DHT22;28351;51.480;5.706;2024-01-30T08:22:25;9.60;99.90
42715;DHT22;28351;51.480;5.706;2024-01-30T08:24:50;9.70;99.90
42715;DHT22;28351;51.480;5.706;2024-01-30T08:27:16;9.70;99.90
42715;DHT22;28351;51.480;5.706;2024-01-30T08:29:47;9.70;99.90
42715;DHT22;28351;51.480;5.706;2024-01-30T08:32:15;9.70;99.90
42715;DHT22;28351;51.480;5.706;2024-01-30T08:34:41;9.70;99.90
42715;DHT22;28351;51.480;5.706;2024-01-30T08:37:06;9.70;99.90
42715;DHT22;28351;51.480;5.706;2024-01-30T08:39:32;9.80;99.90
42715;DHT22;28351;51.480;5.706;2024-01-30T08:41:57;9.70;99.90
42715;DHT22;28351;51.480;5.706;2024-01-30T08:44:23;9.80;99.90
42715;DHT22;28351;51.480;5.706;2024-01-30T08:46:48;9.80;99.90
42715;DHT22;28351;51.480;5.706;2024-01-30T08:49:16;9.80;99.90
42715;DHT22;28351;51.480;5.706;2024-01-30T08:51:41;9.90;99.90
42715;DHT22;28351;51.480;5.706;2024-01-30T08:54:07;10.00;99.90
42715;DHT22;28351;51.480;5.706;2024-01-30T08:56:33;10.00;99.90
42715;DHT22;28351;51.480;5.706;2024-01-30T08:58:58;10.10;99.90
42715;DHT22;28351;51.480;5.706;2024-01-30T09:01:24;10.20;99.90
42715;DHT22;28351;51.480;5.706;2024-01-30T09:03:50;10.20;99.90
42715;DHT22;28351;51.480;5.706;2024-01-30T09:06:16;10.20;99.90
42715;DHT22;28351;51.480;5.706;2024-01-30T09:08:41;10.30;99.90
42715;DHT22;28351;51.480;5.706;2024-01-30T09:11:11;10.30;99.90
42715;DHT22;28351;51.480;5.706;2024-01-30T09:13:37;10.40;99.90
42715;DHT22;28351;51.480;5.706;2024-01-30T09:16:03;10.40;99.90
42715;DHT22;28351;51.480;5.706;2024-01-30T09:18:29;10.40;99.90
42715;DHT22;28351;51.480;5.706;2024-01-30T09:20:58;10.40;99.90
42715;DHT22;28351;51.480;5.706;2024-01-30T09:23:29;10.50;99.90
42715;DHT22;28351;51.480;5.706;2024-01-30T09:25:58;10.60;99.90
42715;DHT22;28351;51.480;5.706;2024-01-30T09:28:33;10.60;99.90
42715;DHT22;28351;51.480;5.706;2024-01-30T09:31:02;10.70;99.90
42715;DHT22;28351;51.480;5.706;2024-01-30T09:33:27;10.70;99.90
42715;DHT22;28351;51.480;5.706;2024-01-30T09:35:53;10.70;99.90
42715;DHT22;28351;51.480;5.706;2024-01-30T09:38:18;10.80;99.90
42715;DHT22;28351;51.480;5.706;2024-01-30T09:40:44;10.70;99.90
42715;DHT22;28351;51.480;5.706;2024-01-30T09:43:16;10.70;99.90
42715;DHT22;28351;51.480;5.706;2024-01-30T09:45:43;10.80;99.90
42715;DHT22;28351;51.480;5.706;2024-01-30T09:48:09;10.80;99.90
42715;DHT22;28351;51.480;5.706;2024-01-30T09:50:35;10.80;99.90
42715;DHT22;28351;51.480;5.706;2024-01-30T09:53:02;10.80;99.90
42715;DHT22;28351;51.480;5.706;2024-01-30T09:55:32;10.90;99.90
42715;DHT22;28351;51.480;5.706;2024-01-30T09:57:59;10.90;99.90
42715;DHT22;28351;51.480;5.706;2024-01-30T10:00:25;10.90;99.90
42715;DHT22;28351;51.480;5.706;2024-01-30T10:02:55;10.90;99.90
42715;DHT22;28351;51.480;5.706;2024-01-30T10:05:21;10.90;99.90
42715;DHT22;28351;51.480;5.706;2024-01-30T10:07:55;10.90;99.90
42715;DHT22;28351;51.480;5.706;2024-01-30T10:10:24;10.90;99.90
42715;DHT22;28351;51.480;5.706;2024-01-30T10:12:49;11.00;99.90
42715;DHT22;28351;51.480;5.706;2024-01-30T10:15:15;11.00;99.90
42715;DHT22;28351;51.480;5.706;2024-01-30T10:17:40;11.10;99.90
42715;DHT22;28351;51.480;5.706;2024-01-30T10:20:06;11.30;99.90
42715;DHT22;28351;51.480;5.706;2024-01-30T10:22:33;11.50;99.90
42715;DHT22;28351;51.480;5.706;2024-01-30T10:24:59;11.60;99.90
42715;DHT22;28351;51.480;5.706;2024-01-30T10:27:41;11.80;99.90
42715;DHT22;28351;51.480;5.706;2024-01-30T10:30:09;12.00;99.90
42715;DHT22;28351;51.480;5.706;2024-01-30T10:32:35;12.00;99.90
42715;DHT22;28351;51.480;5.706;2024-01-30T10:35:01;11.90;99.90
42715;DHT22;28351;51.480;5.706;2024-01-30T10:37:27;11.90;99.90
42715;DHT22;28351;51.480;5.706;2024-01-30T10:39:56;11.90;99.90
42715;DHT22;28351;51.480;5.706;2024-01-30T10:42:26;11.80;99.90
42715;DHT22;28351;51.480;5.706;2024-01-30T10:47:18;11.70;99.90
42715;DHT22;28351;51.480;5.706;2024-01-30T10:49:48;11.70;99.90
42715;DHT22;28351;51.480;5.706;2024-01-30T10:52:14;11.70;99.90
42715;DHT22;28351;51.480;5.706;2024-01-30T10:54:43;11.70;99.90
42715;DHT22;28351;51.480;5.706;2024-01-30T10:57:18;11.70;99.90
42715;DHT22;28351;51.480;5.706;2024-01-30T10:59:44;11.70;99.90
42715;DHT22;28351;51.480;5.706;2024-01-30T11:02:10;11.80;99.90
42715;DHT22;28351;51.480;5.706;2024-01-30T11:04:40;11.90;99.90
42715;DHT22;28351;51.480;5.706;2024-01-30T11:07:18;11.80;99.90
42715;DHT22;28351;51.480;5.706;2024-01-30T11:12:24;11.80;99.90
42715;DHT22;28351;51.480;5.706;2024-01-30T11:14:50;11.80;99.90
42715;DHT22;28351;51.480;5.706;2024-01-30T11:17:15;11.90;99.90
42715;DHT22;28351;51.480;5.706;2024-01-30T11:19:41;12.00;99.90
42715;DHT22;28351;51.480;5.706;2024-01-30T11:22:07;12.10;99.90
42715;DHT22;28351;51.480;5.706;2024-01-30T11:24:39;12.20;99.90
42715;DHT22;28351;51.480;5.706;2024-01-30T11:27:08;12.40;99.90
42715;DHT22;28351;51.480;5.706;2024-01-30T11:29:33;12.60;99.90
42715;DHT22;28351;51.480;5.706;2024-01-30T11:32:00;12.60;99.90
42715;DHT22;28351;51.480;5.706;2024-01-30T11:34:25;12.60;99.90
42715;DHT22;28351;51.480;5.706;2024-01-30T11:36:53;12.40;99.90
42715;DHT22;28351;51.480;5.706;2024-01-30T11:39:24;12.20;99.90
42715;DHT22;28351;51.480;5.706;2024-01-30T11:41:50;12.20;99.90
42715;DHT22;28351;51.480;5.706;2024-01-30T11:44:16;12.10;99.90
42715;DHT22;28351;51.480;5.706;2024-01-30T11:46:42;12.20;99.90
42715;DHT22;28351;51.480;5.706;2024-01-30T11:49:08;12.20;99.90
42715;DHT22;28351;51.480;5.706;2024-01-30T11:51:39;12.30;99.90
42715;DHT22;28351;51.480;5.706;2024-01-30T11:54:05;12.40;99.90
42715;DHT22;28351;51.480;5.706;2024-01-30T11:56:32;12.40;99.90
42715;DHT22;28351;51.480;5.706;2024-01-30T11:58:57;12.50;99.90
42715;DHT22;28351;51.480;5.706;2024-01-30T12:01:26;12.50;99.90
42715;DHT22;28351;51.480;5.706;2024-01-30T12:03:55;12.50;99.90
42715;DHT22;28351;51.480;5.706;2024-01-30T12:06:22;12.50;99.90
42715;DHT22;28351;51.480;5.706;2024-01-30T12:08:58;12.70;99.90
42715;DHT22;28351;51.480;5.706;2024-01-30T12:11:24;13.20;99.90
42715;DHT22;28351;51.480;5.706;2024-01-30T12:13:51;13.20;99.90
42715;DHT22;28351;51.480;5.706;2024-01-30T12:16:16;13.00;99.90
42715;DHT22;28351;51.480;5.706;2024-01-30T12:18:42;12.90;99.90
42715;DHT22;28351;51.480;5.706;2024-01-30T12:21:18;12.80;99.90
42715;DHT22;28351;51.480;5.706;2024-01-30T12:23:44;12.80;99.90
42715;DHT22;28351;51.480;5.706;2024-01-30T12:26:11;12.80;99.90
42715;DHT22;28351;51.480;5.706;2024-01-30T12:28:47;12.80;99.90
42715;DHT22;28351;51.480;5.706;2024-01-30T12:31:12;12.80;99.90
42715;DHT22;28351;51.480;5.706;2024-01-30T12:33:38;12.70;99.90
42715;DHT22;28351;51.480;5.706;2024-01-30T12:36:06;12.60;99.90
42715;DHT22;28351;51.480;5.706;2024-01-30T12:38:32;12.60;99.90
42715;DHT22;28351;51.480;5.706;2024-01-30T12:40:58;12.80;99.90
42715;DHT22;28351;51.480;5.706;2024-01-30T12:43:23;13.80;99.90
42715;DHT22;28351;51.480;5.706;2024-01-30T12:45:50;14.40;99.90
42715;DHT22;28351;51.480;5.706;2024-01-30T12:48:15;14.00;99.90
42715;DHT22;28351;51.480;5.706;2024-01-30T12:50:41;13.10;99.90
42715;DHT22;28351;51.480;5.706;2024-01-30T12:53:08;12.40;99.90
42715;DHT22;28351;51.480;5.706;2024-01-30T12:55:34;12.20;99.90
42715;DHT22;28351;51.480;5.706;2024-01-30T12:58:00;12.00;99.90
42715;DHT22;28351;51.480;5.706;2024-01-30T13:00:25;12.00;99.90
42715;DHT22;28351;51.480;5.706;2024-01-30T13:02:51;11.90;99.90
42715;DHT22;28351;51.480;5.706;2024-01-30T13:05:18;13.30;99.90
42715;DHT22;28351;51.480;5.706;2024-01-30T13:07:43;14.20;99.90
42715;DHT22;28351;51.480;5.706;2024-01-30T13:10:09;15.10;99.90
42715;DHT22;28351;51.480;5.706;2024-01-30T13:12:35;15.40;99.90
42715;DHT22;28351;51.480;5.706;2024-01-30T13:15:01;16.20;99.60
42715;DHT22;28351;51.480;5.706;2024-01-30T13:17:26;16.90;96.70
42715;DHT22;28351;51.480;5.706;2024-01-30T13:19:52;15.70;97.70
42715;DHT22;28351;51.480;5.706;2024-01-30T13:22:19;15.80;97.10
42715;DHT22;28351;51.480;5.706;2024-01-30T13:24:47;14.40;98.60
42715;DHT22;28351;51.480;5.706;2024-01-30T13:27:12;13.30;99.90
42715;DHT22;28351;51.480;5.706;2024-01-30T13:29:38;12.60;99.90
42715;DHT22;28351;51.480;5.706;2024-01-30T13:32:03;12.00;99.90
42715;DHT22;28351;51.480;5.706;2024-01-30T13:34:29;11.90;99.90
42715;DHT22;28351;51.480;5.706;2024-01-30T13:36:54;11.80;99.90
42715;DHT22;28351;51.480;5.706;2024-01-30T13:39:20;12.30;99.90
42715;DHT22;28351;51.480;5.706;2024-01-30T13:41:45;12.50;99.90
42715;DHT22;28351;51.480;5.706;2024-01-30T13:44:11;12.10;99.90
42715;DHT22;28351;51.480;5.706;2024-01-30T13:46:38;11.80;99.90
42715;DHT22;28351;51.480;5.706;2024-01-30T13:49:04;12.00;99.90
42715;DHT22;28351;51.480;5.706;2024-01-30T13:51:29;12.60;99.90
42715;DHT22;28351;51.480;5.706;2024-01-30T13:53:55;13.90;99.10
42715;DHT22;28351;51.480;5.706;2024-01-30T13:56:20;15.10;96.60
42715;DHT22;28351;51.480;5.706;2024-01-30T13:58:52;15.60;96.00
42715;DHT22;28351;51.480;5.706;2024-01-30T14:01:23;16.70;94.50
42715;DHT22;28351;51.480;5.706;2024-01-30T14:03:49;16.20;94.00
42715;DHT22;28351;51.480;5.706;2024-01-30T14:06:14;16.50;93.60
42715;DHT22;28351;51.480;5.706;2024-01-30T14:08:40;15.60;94.80
42715;DHT22;28351;51.480;5.706;2024-01-30T14:11:07;14.80;95.60
42715;DHT22;28351;51.480;5.706;2024-01-30T14:13:33;13.30;97.20
42715;DHT22;28351;51.480;5.706;2024-01-30T14:16:00;12.60;98.30
42715;DHT22;28351;51.480;5.706;2024-01-30T14:18:33;12.20;99.00
42715;DHT22;28351;51.480;5.706;2024-01-30T14:21:08;12.10;99.50
42715;DHT22;28351;51.480;5.706;2024-01-30T14:23:34;11.80;99.90
42715;DHT22;28351;51.480;5.706;2024-01-30T14:25:59;11.70;99.90
42715;DHT22;28351;51.480;5.706;2024-01-30T14:28:25;11.60;99.90
42715;DHT22;28351;51.480;5.706;2024-01-30T14:30:50;11.60;99.90
42715;DHT22;28351;51.480;5.706;2024-01-30T14:33:16;11.50;99.90
42715;DHT22;28351;51.480;5.706;2024-01-30T14:35:42;11.50;99.90
42715;DHT22;28351;51.480;5.706;2024-01-30T14:38:07;11.50;99.90
42715;DHT22;28351;51.480;5.706;2024-01-30T14:40:35;11.50;99.90
42715;DHT22;28351;51.480;5.706;2024-01-30T14:43:05;11.40;99.90
42715;DHT22;28351;51.480;5.706;2024-01-30T14:45:30;11.40;99.90
42715;DHT22;28351;51.480;5.706;2024-01-30T14:47:58;11.20;99.90
42715;DHT22;28351;51.480;5.706;2024-01-30T14:50:25;11.20;99.90
42715;DHT22;28351;51.480;5.706;2024-01-30T14:53:06;11.20;99.90
42715;DHT22;28351;51.480;5.706;2024-01-30T14:55:32;11.20;99.90
42715;DHT22;28351;51.480;5.706;2024-01-30T14:58:00;11.10;99.90
42715;DHT22;28351;51.480;5.706;2024-01-30T15:00:27;11.10;99.90
42715;DHT22;28351;51.480;5.706;2024-01-30T15:03:13;11.10;99.90
42715;DHT22;28351;51.480;5.706;2024-01-30T15:05:38;11.00;99.90
42715;DHT22;28351;51.480;5.706;2024-01-30T15:08:04;10.90;99.90
42715;DHT22;28351;51.480;5.706;2024-01-30T15:10:30;10.80;99.90
42715;DHT22;28351;51.480;5.706;2024-01-30T15:12:55;10.70;99.90
42715;DHT22;28351;51.480;5.706;2024-01-30T15:15:21;10.70;99.90
42715;DHT22;28351;51.480;5.706;2024-01-30T15:17:46;10.60;99.90
42715;DHT22;28351;51.480;5.706;2024-01-30T15:20:12;10.50;99.90
42715;DHT22;28351;51.480;5.706;2024-01-30T15:22:37;10.50;99.90
42715;DHT22;28351;51.480;5.706;2024-01-30T15:25:03;10.40;99.90
42715;DHT22;28351;51.480;5.706;2024-01-30T15:27:31;10.30;99.90
42715;DHT22;28351;51.480;5.706;2024-01-30T15:29:57;10.20;99.90
42715;DHT22;28351;51.480;5.706;2024-01-30T15:32:22;10.10;99.90
42715;DHT22;28351;51.480;5.706;2024-01-30T15:34:48;10.00;99.90
42715;DHT22;28351;51.480;5.706;2024-01-30T15:37:15;10.00;99.90
42715;DHT22;28351;51.480;5.706;2024-01-30T15:39:41;9.90;99.90
42715;DHT22;28351;51.480;5.706;2024-01-30T15:42:07;9.70;99.90